sensor_id;sensor_type;location;lat;lon;timestamp;P1;durP1;ratioP1;P2;durP2;ratioP2
14078;SDS011;7115;50.150;8.568;2023-02-28T00:01:26;4.27;;;2.27;;
14078;SDS011;7115;50.150;8.568;2023-02-28T00:03:54;2.53;;;2.10;;
14078;SDS011;7115;50.150;8.568;2023-02-28T00:06:22;2.90;;;2.07;;
14078;SDS011;7115;50.150;8.568;2023-02-28T00:08:50;4.33;;;2.30;;
14078;SDS011;7115;50.150;8.568;2023-02-28T00:11:17;2.87;;;2.00;;
14078;SDS011;7115;50.150;8.568;2023-02-28T00:13:44;2.90;;;2.20;;
14078;SDS011;7115;50.150;8.568;2023-02-28T00:16:14;2.20;;;2.00;;
14078;SDS011;7115;50.150;8.568;2023-02-28T00:18:42;2.43;;;2.10;;
14078;SDS011;7115;50.150;8.568;2023-02-28T00:21:09;4.23;;;2.23;;
14078;SDS011;7115;50.150;8.568;2023-02-28T00:23:38;2.57;;;2.23;;
14078;SDS011;7115;50.150;8.568;2023-02-28T00:26:05;3.33;;;2.07;;
14078;SDS011;7115;50.150;8.568;2023-02-28T00:28:32;3.57;;;2.37;;
14078;SDS011;7115;50.150;8.568;2023-02-28T00:30:59;2.87;;;2.37;;
14078;SDS011;7115;50.150;8.568;2023-02-28T00:33:26;3.50;;;2.40;;
14078;SDS011;7115;50.150;8.568;2023-02-28T00:36:00;3.53;;;2.40;;
14078;SDS011;7115;50.150;8.568;2023-02-28T00:38:29;2.90;;;2.27;;
14078;SDS011;7115;50.150;8.568;2023-02-28T00:40:57;3.13;;;2.67;;
14078;SDS011;7115;50.150;8.568;2023-02-28T00:43:31;2.70;;;2.27;;
14078;SDS011;7115;50.150;8.568;2023-02-28T00:45:59;4.20;;;2.53;;
14078;SDS011;7115;50.150;8.568;2023-02-28T00:48:26;3.73;;;2.80;;
14078;SDS011;7115;50.150;8.568;2023-02-28T00:50:53;4.23;;;2.67;;
14078;SDS011;7115;50.150;8.568;2023-02-28T00:53:20;5.80;;;3.10;;
14078;SDS011;7115;50.150;8.568;2023-02-28T00:55:48;4.10;;;3.03;;
14078;SDS011;7115;50.150;8.568;2023-02-28T00:58:16;5.23;;;3.00;;
14078;SDS011;7115;50.150;8.568;2023-02-28T01:00:44;6.77;;;3.00;;
14078;SDS011;7115;50.150;8.568;2023-02-28T01:03:15;5.60;;;3.00;;
14078;SDS011;7115;50.150;8.568;2023-02-28T01:05:43;5.57;;;3.20;;
14078;SDS011;7115;50.150;8.568;2023-02-28T01:08:10;4.70;;;3.17;;
14078;SDS011;7115;50.150;8.568;2023-02-28T01:10:37;4.00;;;3.30;;
14078;SDS011;7115;50.150;8.568;2023-02-28T01:13:04;5.60;;;3.03;;
14078;SDS011;7115;50.150;8.568;2023-02-28T01:15:33;5.00;;;3.30;;
14078;SDS011;7115;50.150;8.568;2023-02-28T01:18:00;5.53;;;3.80;;
14078;SDS011;7115;50.150;8.568;2023-02-28T01:20:27;5.63;;;3.60;;
14078;SDS011;7115;50.150;8.568;2023-02-28T01:22:54;3.13;;;2.47;;
14078;SDS011;7115;50.150;8.568;2023-02-28T01:25:21;7.00;;;3.03;;
14078;SDS011;7115;50.150;8.568;2023-02-28T01:27:48;6.23;;;3.30;;
14078;SDS011;7115;50.150;8.568;2023-02-28T01:30:15;3.80;;;3.10;;
14078;SDS011;7115;50.150;8.568;2023-02-28T01:32:43;4.30;;;3.23;;
14078;SDS011;7115;50.150;8.568;2023-02-28T01:35:10;4.07;;;3.33;;
14078;SDS011;7115;50.150;8.568;2023-02-28T01:37:37;4.87;;;3.60;;
14078;SDS011;7115;50.150;8.568;2023-02-28T01:40:05;4.97;;;2.87;;
14078;SDS011;7115;50.150;8.568;2023-02-28T01:42:40;7.57;;;3.43;;
14078;SDS011;7115;50.150;8.568;2023-02-28T01:45:16;3.50;;;2.93;;
14078;SDS011;7115;50.150;8.568;2023-02-28T01:47:49;3.80;;;3.33;;
14078;SDS011;7115;50.150;8.568;2023-02-28T01:50:19;4.93;;;3.17;;
14078;SDS011;7115;50.150;8.568;2023-02-28T01:52:48;7.13;;;3.20;;
14078;SDS011;7115;50.150;8.568;2023-02-28T01:55:16;7.00;;;3.43;;
14078;SDS011;7115;50.150;8.568;2023-02-28T01:57:46;4.43;;;3.30;;
14078;SDS011;7115;50.150;8.568;2023-02-28T02:00:17;7.10;;;3.07;;
14078;SDS011;7115;50.150;8.568;2023-02-28T02:02:49;5.33;;;3.20;;
14078;SDS011;7115;50.150;8.568;2023-02-28T02:05:20;3.60;;;2.77;;
14078;SDS011;7115;50.150;8.568;2023-02-28T02:07:51;3.07;;;2.60;;
14078;SDS011;7115;50.150;8.568;2023-02-28T02:10:24;3.53;;;2.70;;
14078;SDS011;7115;50.150;8.568;2023-02-28T02:13:08;4.67;;;2.90;;
14078;SDS011;7115;50.150;8.568;2023-02-28T02:15:47;4.80;;;2.67;;
14078;SDS011;7115;50.150;8.568;2023-02-28T02:18:22;3.97;;;3.20;;
14078;SDS011;7115;50.150;8.568;2023-02-28T02:21:07;5.00;;;3.20;;
14078;SDS011;7115;50.150;8.568;2023-02-28T02:24:00;3.73;;;3.00;;
14078;SDS011;7115;50.150;8.568;2023-02-28T02:29:37;6.30;;;3.30;;
14078;SDS011;7115;50.150;8.568;2023-02-28T02:32:20;4.63;;;2.87;;
14078;SDS011;7115;50.150;8.568;2023-02-28T02:35:11;3.57;;;2.67;;
14078;SDS011;7115;50.150;8.568;2023-02-28T02:37:40;3.37;;;3.07;;
14078;SDS011;7115;50.150;8.568;2023-02-28T02:40:16;3.40;;;2.47;;
14078;SDS011;7115;50.150;8.568;2023-02-28T02:42:48;4.67;;;2.50;;
14078;SDS011;7115;50.150;8.568;2023-02-28T02:45:19;3.60;;;2.90;;
14078;SDS011;7115;50.150;8.568;2023-02-28T02:47:50;4.57;;;2.73;;
14078;SDS011;7115;50.150;8.568;2023-02-28T02:50:22;4.00;;;3.23;;
14078;SDS011;7115;50.150;8.568;2023-02-28T02:52:53;5.40;;;3.10;;
14078;SDS011;7115;50.150;8.568;2023-02-28T02:55:24;3.07;;;2.77;;
14078;SDS011;7115;50.150;8.568;2023-02-28T02:57:53;3.47;;;3.17;;
14078;SDS011;7115;50.150;8.568;2023-02-28T03:00:25;4.10;;;3.10;;
14078;SDS011;7115;50.150;8.568;2023-02-28T03:02:56;4.70;;;3.00;;
14078;SDS011;7115;50.150;8.568;2023-02-28T03:05:26;5.43;;;3.20;;
14078;SDS011;7115;50.150;8.568;2023-02-28T03:07:56;4.40;;;2.87;;
14078;SDS011;7115;50.150;8.568;2023-02-28T03:10:27;8.03;;;3.10;;
14078;SDS011;7115;50.150;8.568;2023-02-28T03:13:00;3.97;;;2.87;;
14078;SDS011;7115;50.150;8.568;2023-02-28T03:16:08;5.37;;;3.27;;
14078;SDS011;7115;50.150;8.568;2023-02-28T03:18:50;4.50;;;2.83;;
14078;SDS011;7115;50.150;8.568;2023-02-28T03:21:27;5.53;;;3.63;;
14078;SDS011;7115;50.150;8.568;2023-02-28T03:24:03;4.03;;;3.20;;
14078;SDS011;7115;50.150;8.568;2023-02-28T03:26:34;6.30;;;3.20;;
14078;SDS011;7115;50.150;8.568;2023-02-28T03:29:05;4.17;;;3.53;;
14078;SDS011;7115;50.150;8.568;2023-02-28T03:31:43;3.80;;;3.27;;
14078;SDS011;7115;50.150;8.568;2023-02-28T03:34:16;8.13;;;3.07;;
14078;SDS011;7115;50.150;8.568;2023-02-28T03:36:51;3.90;;;3.00;;
14078;SDS011;7115;50.150;8.568;2023-02-28T03:39:21;4.60;;;3.43;;
14078;SDS011;7115;50.150;8.568;2023-02-28T03:41:54;4.27;;;3.17;;
14078;SDS011;7115;50.150;8.568;2023-02-28T03:44:27;6.50;;;3.73;;
14078;SDS011;7115;50.150;8.568;2023-02-28T03:46:59;4.23;;;3.20;;
14078;SDS011;7115;50.150;8.568;2023-02-28T03:49:30;6.87;;;3.83;;
14078;SDS011;7115;50.150;8.568;2023-02-28T03:52:02;5.60;;;3.50;;
14078;SDS011;7115;50.150;8.568;2023-02-28T03:54:33;5.77;;;3.40;;
14078;SDS011;7115;50.150;8.568;2023-02-28T03:57:04;5.13;;;3.77;;
14078;SDS011;7115;50.150;8.568;2023-02-28T03:59:37;5.47;;;3.57;;
14078;SDS011;7115;50.150;8.568;2023-02-28T04:02:08;4.53;;;3.03;;
14078;SDS011;7115;50.150;8.568;2023-02-28T04:04:35;5.33;;;3.37;;
14078;SDS011;7115;50.150;8.568;2023-02-28T04:07:04;5.13;;;3.50;;
14078;SDS011;7115;50.150;8.568;2023-02-28T04:09:33;4.90;;;3.43;;
14078;SDS011;7115;50.150;8.568;2023-02-28T04:12:00;3.23;;;2.93;;
14078;SDS011;7115;50.150;8.568;2023-02-28T04:14:27;4.03;;;2.90;;
14078;SDS011;7115;50.150;8.568;2023-02-28T04:16:54;3.80;;;2.90;;
14078;SDS011;7115;50.150;8.568;2023-02-28T04:19:21;4.40;;;3.40;;
14078;SDS011;7115;50.150;8.568;2023-02-28T04:21:49;3.23;;;2.30;;
14078;SDS011;7115;50.150;8.568;2023-02-28T04:24:20;6.63;;;3.07;;
14078;SDS011;7115;50.150;8.568;2023-02-28T04:26:48;4.97;;;2.63;;
14078;SDS011;7115;50.150;8.568;2023-02-28T04:29:18;3.43;;;2.90;;
14078;SDS011;7115;50.150;8.568;2023-02-28T04:31:46;3.60;;;3.00;;
14078;SDS011;7115;50.150;8.568;2023-02-28T04:34:16;2.70;;;2.40;;
14078;SDS011;7115;50.150;8.568;2023-02-28T04:36:45;3.60;;;2.67;;
14078;SDS011;7115;50.150;8.568;2023-02-28T04:39:12;3.77;;;2.23;;
14078;SDS011;7115;50.150;8.568;2023-02-28T04:41:40;3.33;;;2.53;;
14078;SDS011;7115;50.150;8.568;2023-02-28T04:44:07;3.03;;;2.40;;
14078;SDS011;7115;50.150;8.568;2023-02-28T04:46:34;3.97;;;2.40;;
14078;SDS011;7115;50.150;8.568;2023-02-28T04:49:01;3.20;;;2.30;;
14078;SDS011;7115;50.150;8.568;2023-02-28T04:51:28;5.70;;;2.20;;
14078;SDS011;7115;50.150;8.568;2023-02-28T04:53:56;4.10;;;2.33;;
14078;SDS011;7115;50.150;8.568;2023-02-28T04:56:23;4.17;;;2.70;;
14078;SDS011;7115;50.150;8.568;2023-02-28T04:58:51;3.87;;;2.30;;
14078;SDS011;7115;50.150;8.568;2023-02-28T05:01:20;2.63;;;2.13;;
14078;SDS011;7115;50.150;8.568;2023-02-28T05:03:53;5.73;;;2.57;;
14078;SDS011;7115;50.150;8.568;2023-02-28T05:06:22;3.63;;;2.53;;
14078;SDS011;7115;50.150;8.568;2023-02-28T05:08:50;2.80;;;2.23;;
14078;SDS011;7115;50.150;8.568;2023-02-28T05:11:18;3.63;;;2.67;;
14078;SDS011;7115;50.150;8.568;2023-02-28T05:13:46;4.23;;;2.33;;
14078;SDS011;7115;50.150;8.568;2023-02-28T05:16:16;3.80;;;2.20;;
14078;SDS011;7115;50.150;8.568;2023-02-28T05:18:43;3.40;;;2.50;;
14078;SDS011;7115;50.150;8.568;2023-02-28T05:21:22;4.07;;;2.37;;
14078;SDS011;7115;50.150;8.568;2023-02-28T05:23:52;5.07;;;2.70;;
14078;SDS011;7115;50.150;8.568;2023-02-28T05:26:20;2.87;;;1.90;;
14078;SDS011;7115;50.150;8.568;2023-02-28T05:28:47;2.30;;;2.10;;
14078;SDS011;7115;50.150;8.568;2023-02-28T05:31:15;2.37;;;2.03;;
14078;SDS011;7115;50.150;8.568;2023-02-28T05:33:42;3.20;;;2.50;;
14078;SDS011;7115;50.150;8.568;2023-02-28T05:36:09;5.47;;;2.50;;
14078;SDS011;7115;50.150;8.568;2023-02-28T05:38:36;3.47;;;2.27;;
14078;SDS011;7115;50.150;8.568;2023-02-28T05:41:05;3.80;;;2.70;;
14078;SDS011;7115;50.150;8.568;2023-02-28T05:43:33;4.63;;;2.40;;
14078;SDS011;7115;50.150;8.568;2023-02-28T05:46:02;5.50;;;2.67;;
14078;SDS011;7115;50.150;8.568;2023-02-28T05:48:31;4.57;;;2.67;;
14078;SDS011;7115;50.150;8.568;2023-02-28T05:50:58;3.30;;;2.20;;
14078;SDS011;7115;50.150;8.568;2023-02-28T05:53:25;5.07;;;2.30;;
14078;SDS011;7115;50.150;8.568;2023-02-28T05:55:52;3.27;;;2.40;;
14078;SDS011;7115;50.150;8.568;2023-02-28T05:58:20;4.87;;;3.07;;
14078;SDS011;7115;50.150;8.568;2023-02-28T06:00:47;7.87;;;2.57;;
14078;SDS011;7115;50.150;8.568;2023-02-28T06:03:15;3.90;;;2.40;;
14078;SDS011;7115;50.150;8.568;2023-02-28T06:05:43;3.00;;;2.30;;
14078;SDS011;7115;50.150;8.568;2023-02-28T06:08:10;5.00;;;2.80;;
14078;SDS011;7115;50.150;8.568;2023-02-28T06:10:37;4.83;;;2.73;;
14078;SDS011;7115;50.150;8.568;2023-02-28T06:13:04;7.57;;;2.50;;
14078;SDS011;7115;50.150;8.568;2023-02-28T06:15:31;5.30;;;2.90;;
14078;SDS011;7115;50.150;8.568;2023-02-28T06:17:58;5.80;;;2.60;;
14078;SDS011;7115;50.150;8.568;2023-02-28T06:20:26;4.40;;;2.70;;
14078;SDS011;7115;50.150;8.568;2023-02-28T06:22:57;4.10;;;2.80;;
14078;SDS011;7115;50.150;8.568;2023-02-28T06:25:27;9.30;;;2.50;;
14078;SDS011;7115;50.150;8.568;2023-02-28T06:27:54;4.70;;;2.60;;
14078;SDS011;7115;50.150;8.568;2023-02-28T06:30:21;6.53;;;3.33;;
14078;SDS011;7115;50.150;8.568;2023-02-28T06:32:53;4.37;;;2.50;;
14078;SDS011;7115;50.150;8.568;2023-02-28T06:35:20;3.70;;;2.70;;
14078;SDS011;7115;50.150;8.568;2023-02-28T06:37:48;3.60;;;2.70;;
14078;SDS011;7115;50.150;8.568;2023-02-28T06:40:16;4.63;;;2.77;;
14078;SDS011;7115;50.150;8.568;2023-02-28T06:42:43;4.37;;;2.47;;
14078;SDS011;7115;50.150;8.568;2023-02-28T06:45:10;4.30;;;2.70;;
14078;SDS011;7115;50.150;8.568;2023-02-28T06:47:38;5.67;;;2.90;;
14078;SDS011;7115;50.150;8.568;2023-02-28T06:50:07;3.77;;;2.53;;
14078;SDS011;7115;50.150;8.568;2023-02-28T06:52:35;4.90;;;2.70;;
14078;SDS011;7115;50.150;8.568;2023-02-28T06:55:05;3.73;;;2.90;;
14078;SDS011;7115;50.150;8.568;2023-02-28T06:57:35;11.00;;;3.33;;
14078;SDS011;7115;50.150;8.568;2023-02-28T07:00:03;6.30;;;3.30;;
14078;SDS011;7115;50.150;8.568;2023-02-28T07:02:34;5.13;;;3.37;;
14078;SDS011;7115;50.150;8.568;2023-02-28T07:05:01;5.40;;;3.00;;
14078;SDS011;7115;50.150;8.568;2023-02-28T07:07:28;4.70;;;2.93;;
14078;SDS011;7115;50.150;8.568;2023-02-28T07:09:55;5.70;;;2.73;;
14078;SDS011;7115;50.150;8.568;2023-02-28T07:12:22;5.67;;;2.63;;
14078;SDS011;7115;50.150;8.568;2023-02-28T07:14:50;3.93;;;2.40;;
14078;SDS011;7115;50.150;8.568;2023-02-28T07:17:17;5.57;;;3.17;;
14078;SDS011;7115;50.150;8.568;2023-02-28T07:19:44;4.37;;;2.93;;
14078;SDS011;7115;50.150;8.568;2023-02-28T07:22:11;5.87;;;3.10;;
14078;SDS011;7115;50.150;8.568;2023-02-28T07:24:41;3.33;;;2.77;;
14078;SDS011;7115;50.150;8.568;2023-02-28T07:27:08;5.33;;;3.07;;
14078;SDS011;7115;50.150;8.568;2023-02-28T07:29:34;3.70;;;3.30;;
14078;SDS011;7115;50.150;8.568;2023-02-28T07:32:04;3.23;;;2.77;;
14078;SDS011;7115;50.150;8.568;2023-02-28T07:34:31;4.10;;;3.20;;
14078;SDS011;7115;50.150;8.568;2023-02-28T07:36:58;5.70;;;3.30;;
14078;SDS011;7115;50.150;8.568;2023-02-28T07:39:25;4.07;;;3.17;;
14078;SDS011;7115;50.150;8.568;2023-02-28T07:41:52;5.50;;;3.20;;
14078;SDS011;7115;50.150;8.568;2023-02-28T07:44:19;5.37;;;3.30;;
14078;SDS011;7115;50.150;8.568;2023-02-28T07:46:47;3.43;;;2.97;;
14078;SDS011;7115;50.150;8.568;2023-02-28T07:49:15;5.63;;;3.23;;
14078;SDS011;7115;50.150;8.568;2023-02-28T07:51:42;6.77;;;4.47;;
14078;SDS011;7115;50.150;8.568;2023-02-28T07:54:09;7.07;;;3.73;;
14078;SDS011;7115;50.150;8.568;2023-02-28T07:56:36;3.73;;;3.20;;
14078;SDS011;7115;50.150;8.568;2023-02-28T07:59:03;3.17;;;2.60;;
14078;SDS011;7115;50.150;8.568;2023-02-28T08:01:30;3.87;;;2.60;;
14078;SDS011;7115;50.150;8.568;2023-02-28T08:03:57;5.67;;;3.27;;
14078;SDS011;7115;50.150;8.568;2023-02-28T08:06:25;4.20;;;2.87;;
14078;SDS011;7115;50.150;8.568;2023-02-28T08:08:52;3.07;;;2.77;;
14078;SDS011;7115;50.150;8.568;2023-02-28T08:11:19;8.30;;;2.80;;
14078;SDS011;7115;50.150;8.568;2023-02-28T08:13:46;3.57;;;2.60;;
14078;SDS011;7115;50.150;8.568;2023-02-28T08:16:13;5.23;;;2.80;;
14078;SDS011;7115;50.150;8.568;2023-02-28T08:18:48;4.47;;;2.90;;
14078;SDS011;7115;50.150;8.568;2023-02-28T08:21:16;3.77;;;2.87;;
14078;SDS011;7115;50.150;8.568;2023-02-28T08:23:45;4.83;;;3.20;;
14078;SDS011;7115;50.150;8.568;2023-02-28T08:26:12;3.03;;;2.57;;
14078;SDS011;7115;50.150;8.568;2023-02-28T08:28:39;3.90;;;2.60;;
14078;SDS011;7115;50.150;8.568;2023-02-28T08:31:07;5.90;;;3.03;;
14078;SDS011;7115;50.150;8.568;2023-02-28T08:33:35;2.97;;;2.60;;
14078;SDS011;7115;50.150;8.568;2023-02-28T08:36:02;2.97;;;2.73;;
14078;SDS011;7115;50.150;8.568;2023-02-28T08:38:30;3.63;;;2.77;;
14078;SDS011;7115;50.150;8.568;2023-02-28T08:40:59;4.87;;;2.63;;
14078;SDS011;7115;50.150;8.568;2023-02-28T08:43:27;3.07;;;2.50;;
14078;SDS011;7115;50.150;8.568;2023-02-28T08:45:54;4.23;;;3.03;;
14078;SDS011;7115;50.150;8.568;2023-02-28T08:48:23;4.10;;;2.63;;
14078;SDS011;7115;50.150;8.568;2023-02-28T08:50:56;2.93;;;2.43;;
14078;SDS011;7115;50.150;8.568;2023-02-28T08:53:33;3.30;;;2.60;;
14078;SDS011;7115;50.150;8.568;2023-02-28T08:56:02;5.03;;;2.90;;
14078;SDS011;7115;50.150;8.568;2023-02-28T08:58:30;3.17;;;2.40;;
14078;SDS011;7115;50.150;8.568;2023-02-28T09:00:57;3.07;;;2.70;;
14078;SDS011;7115;50.150;8.568;2023-02-28T09:03:24;4.03;;;2.70;;
14078;SDS011;7115;50.150;8.568;2023-02-28T09:05:51;2.27;;;1.97;;
14078;SDS011;7115;50.150;8.568;2023-02-28T09:08:23;2.50;;;2.00;;
14078;SDS011;7115;50.150;8.568;2023-02-28T09:10:50;3.67;;;2.43;;
14078;SDS011;7115;50.150;8.568;2023-02-28T09:13:18;3.20;;;2.40;;
14078;SDS011;7115;50.150;8.568;2023-02-28T09:15:45;9.33;;;6.97;;
14078;SDS011;7115;50.150;8.568;2023-02-28T09:18:12;3.70;;;2.57;;
14078;SDS011;7115;50.150;8.568;2023-02-28T09:20:39;3.43;;;2.37;;
14078;SDS011;7115;50.150;8.568;2023-02-28T09:23:07;2.97;;;2.47;;
14078;SDS011;7115;50.150;8.568;2023-02-28T09:25:35;3.97;;;2.43;;
14078;SDS011;7115;50.150;8.568;2023-02-28T09:28:02;3.17;;;2.30;;
14078;SDS011;7115;50.150;8.568;2023-02-28T09:30:31;4.93;;;2.50;;
14078;SDS011;7115;50.150;8.568;2023-02-28T09:32:58;4.60;;;2.77;;
14078;SDS011;7115;50.150;8.568;2023-02-28T09:35:25;2.40;;;2.20;;
14078;SDS011;7115;50.150;8.568;2023-02-28T09:37:52;4.17;;;2.67;;
14078;SDS011;7115;50.150;8.568;2023-02-28T09:40:20;3.07;;;2.50;;
14078;SDS011;7115;50.150;8.568;2023-02-28T09:42:49;3.83;;;2.33;;
14078;SDS011;7115;50.150;8.568;2023-02-28T09:45:21;5.73;;;2.50;;
14078;SDS011;7115;50.150;8.568;2023-02-28T09:47:53;2.90;;;2.30;;
14078;SDS011;7115;50.150;8.568;2023-02-28T09:50:28;2.80;;;2.43;;
14078;SDS011;7115;50.150;8.568;2023-02-28T09:53:00;3.43;;;2.60;;
14078;SDS011;7115;50.150;8.568;2023-02-28T09:55:31;5.03;;;2.83;;
14078;SDS011;7115;50.150;8.568;2023-02-28T09:58:14;3.47;;;2.33;;
14078;SDS011;7115;50.150;8.568;2023-02-28T10:00:46;3.80;;;2.47;;
14078;SDS011;7115;50.150;8.568;2023-02-28T10:03:27;3.80;;;2.67;;
14078;SDS011;7115;50.150;8.568;2023-02-28T10:06:02;3.93;;;2.63;;
14078;SDS011;7115;50.150;8.568;2023-02-28T10:08:36;3.50;;;2.80;;
14078;SDS011;7115;50.150;8.568;2023-02-28T10:11:09;4.23;;;3.33;;
14078;SDS011;7115;50.150;8.568;2023-02-28T10:13:41;4.97;;;3.17;;
14078;SDS011;7115;50.150;8.568;2023-02-28T10:16:17;4.27;;;2.77;;
14078;SDS011;7115;50.150;8.568;2023-02-28T10:18:52;3.37;;;2.43;;
14078;SDS011;7115;50.150;8.568;2023-02-28T10:21:25;3.67;;;2.73;;
14078;SDS011;7115;50.150;8.568;2023-02-28T10:23:56;3.27;;;2.80;;
14078;SDS011;7115;50.150;8.568;2023-02-28T10:26:29;4.80;;;2.90;;
14078;SDS011;7115;50.150;8.568;2023-02-28T10:28:58;6.83;;;2.80;;
14078;SDS011;7115;50.150;8.568;2023-02-28T10:31:25;4.27;;;3.40;;
14078;SDS011;7115;50.150;8.568;2023-02-28T10:33:54;4.13;;;3.03;;
14078;SDS011;7115;50.150;8.568;2023-02-28T10:36:21;5.33;;;2.90;;
14078;SDS011;7115;50.150;8.568;2023-02-28T10:38:48;4.17;;;3.07;;
14078;SDS011;7115;50.150;8.568;2023-02-28T10:41:17;3.90;;;2.63;;
14078;SDS011;7115;50.150;8.568;2023-02-28T10:44:12;4.50;;;3.03;;
14078;SDS011;7115;50.150;8.568;2023-02-28T10:46:41;4.97;;;2.90;;
14078;SDS011;7115;50.150;8.568;2023-02-28T10:49:14;9.80;;;3.47;;
14078;SDS011;7115;50.150;8.568;2023-02-28T10:51:52;7.47;;;3.07;;
14078;SDS011;7115;50.150;8.568;2023-02-28T10:54:22;4.17;;;3.20;;
14078;SDS011;7115;50.150;8.568;2023-02-28T10:59:45;3.57;;;3.07;;
14078;SDS011;7115;50.150;8.568;2023-02-28T11:02:29;5.73;;;3.40;;
14078;SDS011;7115;50.150;8.568;2023-02-28T11:05:01;3.60;;;3.10;;
14078;SDS011;7115;50.150;8.568;2023-02-28T11:07:28;5.90;;;3.50;;
14078;SDS011;7115;50.150;8.568;2023-02-28T11:10:17;4.77;;;3.10;;
14078;SDS011;7115;50.150;8.568;2023-02-28T11:12:49;5.30;;;3.50;;
14078;SDS011;7115;50.150;8.568;2023-02-28T11:15:21;5.17;;;4.30;;
14078;SDS011;7115;50.150;8.568;2023-02-28T11:17:54;5.93;;;3.43;;
14078;SDS011;7115;50.150;8.568;2023-02-28T11:20:26;6.33;;;3.67;;
14078;SDS011;7115;50.150;8.568;2023-02-28T11:22:54;3.83;;;3.03;;
14078;SDS011;7115;50.150;8.568;2023-02-28T11:25:23;4.40;;;3.13;;
14078;SDS011;7115;50.150;8.568;2023-02-28T11:27:53;5.00;;;3.37;;
14078;SDS011;7115;50.150;8.568;2023-02-28T11:30:25;6.13;;;3.20;;
14078;SDS011;7115;50.150;8.568;2023-02-28T11:32:57;3.83;;;3.43;;
14078;SDS011;7115;50.150;8.568;2023-02-28T11:35:27;4.03;;;3.43;;
14078;SDS011;7115;50.150;8.568;2023-02-28T11:37:56;3.73;;;2.80;;
14078;SDS011;7115;50.150;8.568;2023-02-28T11:40:25;4.70;;;3.47;;
14078;SDS011;7115;50.150;8.568;2023-02-28T11:43:00;7.20;;;3.83;;
14078;SDS011;7115;50.150;8.568;2023-02-28T11:45:47;6.47;;;3.57;;
14078;SDS011;7115;50.150;8.568;2023-02-28T11:48:25;5.77;;;3.40;;
14078;SDS011;7115;50.150;8.568;2023-02-28T11:51:05;5.27;;;3.57;;
14078;SDS011;7115;50.150;8.568;2023-02-28T11:56:43;4.10;;;3.13;;
14078;SDS011;7115;50.150;8.568;2023-02-28T12:02:20;12.50;;;8.00;;
14078;SDS011;7115;50.150;8.568;2023-02-28T12:04:55;4.80;;;3.40;;
14078;SDS011;7115;50.150;8.568;2023-02-28T12:07:39;6.97;;;3.53;;
14078;SDS011;7115;50.150;8.568;2023-02-28T12:10:17;4.70;;;3.03;;
14078;SDS011;7115;50.150;8.568;2023-02-28T12:12:50;4.30;;;3.73;;
14078;SDS011;7115;50.150;8.568;2023-02-28T12:15:37;5.27;;;3.40;;
14078;SDS011;7115;50.150;8.568;2023-02-28T12:18:24;6.47;;;3.47;;
14078;SDS011;7115;50.150;8.568;2023-02-28T12:21:01;4.97;;;3.90;;
14078;SDS011;7115;50.150;8.568;2023-02-28T12:23:50;4.33;;;3.57;;
14078;SDS011;7115;50.150;8.568;2023-02-28T12:26:27;5.93;;;4.30;;
14078;SDS011;7115;50.150;8.568;2023-02-28T12:29:01;9.07;;;5.03;;
14078;SDS011;7115;50.150;8.568;2023-02-28T12:31:37;6.80;;;4.40;;
14078;SDS011;7115;50.150;8.568;2023-02-28T12:34:10;7.70;;;4.20;;
14078;SDS011;7115;50.150;8.568;2023-02-28T12:36:39;8.10;;;3.97;;
14078;SDS011;7115;50.150;8.568;2023-02-28T12:39:10;4.90;;;3.77;;
14078;SDS011;7115;50.150;8.568;2023-02-28T12:41:42;5.93;;;4.37;;
14078;SDS011;7115;50.150;8.568;2023-02-28T12:44:15;6.63;;;3.77;;
14078;SDS011;7115;50.150;8.568;2023-02-28T12:46:46;4.70;;;3.80;;
14078;SDS011;7115;50.150;8.568;2023-02-28T12:49:16;6.37;;;4.63;;
14078;SDS011;7115;50.150;8.568;2023-02-28T12:51:47;7.00;;;3.73;;
14078;SDS011;7115;50.150;8.568;2023-02-28T12:54:19;3.80;;;3.40;;
14078;SDS011;7115;50.150;8.568;2023-02-28T12:56:53;4.50;;;3.67;;
14078;SDS011;7115;50.150;8.568;2023-02-28T12:59:27;5.63;;;3.93;;
14078;SDS011;7115;50.150;8.568;2023-02-28T13:02:09;4.60;;;3.80;;
14078;SDS011;7115;50.150;8.568;2023-02-28T13:05:12;6.60;;;4.37;;
14078;SDS011;7115;50.150;8.568;2023-02-28T13:08:04;4.43;;;3.80;;
14078;SDS011;7115;50.150;8.568;2023-02-28T13:10:50;4.63;;;3.67;;
14078;SDS011;7115;50.150;8.568;2023-02-28T13:13:21;6.67;;;4.20;;
14078;SDS011;7115;50.150;8.568;2023-02-28T13:16:01;6.37;;;3.97;;
14078;SDS011;7115;50.150;8.568;2023-02-28T13:18:35;6.10;;;4.20;;
14078;SDS011;7115;50.150;8.568;2023-02-28T13:21:04;8.47;;;4.10;;
14078;SDS011;7115;50.150;8.568;2023-02-28T13:23:39;4.97;;;4.07;;
14078;SDS011;7115;50.150;8.568;2023-02-28T13:29:37;4.70;;;3.67;;
14078;SDS011;7115;50.150;8.568;2023-02-28T13:35:12;6.47;;;3.87;;
14078;SDS011;7115;50.150;8.568;2023-02-28T13:38:15;5.20;;;3.87;;
14078;SDS011;7115;50.150;8.568;2023-02-28T13:40:47;4.93;;;3.70;;
14078;SDS011;7115;50.150;8.568;2023-02-28T13:43:16;6.23;;;4.33;;
14078;SDS011;7115;50.150;8.568;2023-02-28T13:48:39;7.10;;;3.70;;
14078;SDS011;7115;50.150;8.568;2023-02-28T13:51:27;6.53;;;3.90;;
14078;SDS011;7115;50.150;8.568;2023-02-28T13:54:13;5.33;;;3.87;;
14078;SDS011;7115;50.150;8.568;2023-02-28T13:56:52;6.60;;;3.90;;
14078;SDS011;7115;50.150;8.568;2023-02-28T13:59:32;4.87;;;4.27;;
14078;SDS011;7115;50.150;8.568;2023-02-28T14:02:22;7.73;;;4.73;;
14078;SDS011;7115;50.150;8.568;2023-02-28T14:05:13;8.40;;;4.30;;
14078;SDS011;7115;50.150;8.568;2023-02-28T14:07:42;6.10;;;4.20;;
14078;SDS011;7115;50.150;8.568;2023-02-28T14:10:19;5.53;;;3.73;;
14078;SDS011;7115;50.150;8.568;2023-02-28T14:12:58;6.40;;;4.40;;
14078;SDS011;7115;50.150;8.568;2023-02-28T14:15:39;5.13;;;3.90;;
14078;SDS011;7115;50.150;8.568;2023-02-28T14:18:21;6.03;;;4.43;;
14078;SDS011;7115;50.150;8.568;2023-02-28T14:20:54;4.00;;;3.43;;
14078;SDS011;7115;50.150;8.568;2023-02-28T14:23:29;6.53;;;4.33;;
14078;SDS011;7115;50.150;8.568;2023-02-28T14:26:03;4.90;;;3.67;;
14078;SDS011;7115;50.150;8.568;2023-02-28T14:28:43;6.37;;;4.00;;
14078;SDS011;7115;50.150;8.568;2023-02-28T14:31:23;5.37;;;3.97;;
14078;SDS011;7115;50.150;8.568;2023-02-28T14:34:03;4.50;;;3.73;;
14078;SDS011;7115;50.150;8.568;2023-02-28T14:36:43;6.03;;;3.90;;
14078;SDS011;7115;50.150;8.568;2023-02-28T14:39:12;6.67;;;4.33;;
14078;SDS011;7115;50.150;8.568;2023-02-28T14:41:41;11.77;;;6.27;;
14078;SDS011;7115;50.150;8.568;2023-02-28T14:44:13;5.63;;;4.27;;
14078;SDS011;7115;50.150;8.568;2023-02-28T14:46:42;6.80;;;4.43;;
14078;SDS011;7115;50.150;8.568;2023-02-28T14:49:15;6.60;;;3.83;;
14078;SDS011;7115;50.150;8.568;2023-02-28T14:51:45;5.63;;;4.13;;
14078;SDS011;7115;50.150;8.568;2023-02-28T14:54:14;5.57;;;4.00;;
14078;SDS011;7115;50.150;8.568;2023-02-28T14:56:43;5.97;;;4.00;;
14078;SDS011;7115;50.150;8.568;2023-02-28T14:59:25;5.77;;;4.40;;
14078;SDS011;7115;50.150;8.568;2023-02-28T15:04:41;6.97;;;3.77;;
14078;SDS011;7115;50.150;8.568;2023-02-28T15:07:09;6.00;;;3.80;;
14078;SDS011;7115;50.150;8.568;2023-02-28T15:09:37;6.30;;;4.20;;
14078;SDS011;7115;50.150;8.568;2023-02-28T15:12:04;6.13;;;4.17;;
14078;SDS011;7115;50.150;8.568;2023-02-28T15:14:31;6.80;;;4.13;;
14078;SDS011;7115;50.150;8.568;2023-02-28T15:17:01;5.67;;;4.30;;
14078;SDS011;7115;50.150;8.568;2023-02-28T15:19:32;6.33;;;4.70;;
14078;SDS011;7115;50.150;8.568;2023-02-28T15:22:07;5.13;;;3.80;;
14078;SDS011;7115;50.150;8.568;2023-02-28T15:24:43;5.10;;;3.80;;
14078;SDS011;7115;50.150;8.568;2023-02-28T15:27:13;5.10;;;4.07;;
14078;SDS011;7115;50.150;8.568;2023-02-28T15:29:46;6.53;;;4.40;;
14078;SDS011;7115;50.150;8.568;2023-02-28T15:32:23;6.57;;;3.90;;
14078;SDS011;7115;50.150;8.568;2023-02-28T15:34:52;7.23;;;4.77;;
14078;SDS011;7115;50.150;8.568;2023-02-28T15:37:33;8.20;;;4.00;;
14078;SDS011;7115;50.150;8.568;2023-02-28T15:40:11;5.80;;;4.50;;
14078;SDS011;7115;50.150;8.568;2023-02-28T15:42:41;7.47;;;4.37;;
14078;SDS011;7115;50.150;8.568;2023-02-28T15:45:26;6.07;;;3.80;;
14078;SDS011;7115;50.150;8.568;2023-02-28T15:47:55;7.33;;;4.60;;
14078;SDS011;7115;50.150;8.568;2023-02-28T15:50:27;6.53;;;3.93;;